sensor_id;sensor_type;location;lat;lon;timestamp;pressure;altitude;pressure_sealevel;temperature;humidity
27980;BME280;15315;50.836;4.430;2023-06-22T00:09:10;101287.63;;;25.99;56.26
27980;BME280;15315;50.836;4.430;2023-06-22T00:19:10;101288.88;;;25.67;56.73
27980;BME280;15315;50.836;4.430;2023-06-22T00:29:11;101266.50;;;25.91;55.56
27980;BME280;15315;50.836;4.430;2023-06-22T00:39:12;101267.78;;;26.10;55.22
27980;BME280;15315;50.836;4.430;2023-06-22T00:49:14;101266.09;;;26.15;54.84
27980;BME280;15315;50.836;4.430;2023-06-22T00:59:14;101274.59;;;26.14;54.70
27980;BME280;15315;50.836;4.430;2023-06-22T01:09:27;101277.78;;;26.32;54.47
27980;BME280;15315;50.836;4.430;2023-06-22T01:19:44;101265.69;;;25.61;55.64
27980;BME280;15315;50.836;4.430;2023-06-22T01:29:50;101252.47;;;25.27;57.00
27980;BME280;15315;50.836;4.430;2023-06-22T01:39:51;101240.50;;;24.83;58.96
27980;BME280;15315;50.836;4.430;2023-06-22T01:49:53;101237.81;;;25.27;57.51
27980;BME280;15315;50.836;4.430;2023-06-22T02:00:04;101249.81;;;24.59;59.93
27980;BME280;15315;50.836;4.430;2023-06-22T02:10:09;101239.25;;;24.71;59.43
27980;BME280;15315;50.836;4.430;2023-06-22T02:20:13;101244.56;;;24.73;60.02
27980;BME280;15315;50.836;4.430;2023-06-22T02:30:14;101211.31;;;24.74;60.05
27980;BME280;15315;50.836;4.430;2023-06-22T02:40:16;101215.69;;;24.83;59.61
27980;BME280;15315;50.836;4.430;2023-06-22T02:50:16;101205.38;;;24.62;60.31
27980;BME280;15315;50.836;4.430;2023-06-22T03:00:17;101189.16;;;24.97;59.19
27980;BME280;15315;50.836;4.430;2023-06-22T03:10:17;101177.38;;;24.51;59.87
27980;BME280;15315;50.836;4.430;2023-06-22T03:20:17;101176.88;;;24.47;59.92
27980;BME280;15315;50.836;4.430;2023-06-22T03:30:19;101175.50;;;24.29;60.96
27980;BME280;15315;50.836;4.430;2023-06-22T03:40:19;101166.81;;;24.77;59.49
27980;BME280;15315;50.836;4.430;2023-06-22T03:50:20;101182.97;;;24.95;58.91
27980;BME280;15315;50.836;4.430;2023-06-22T04:00:20;101189.31;;;24.95;58.79
27980;BME280;15315;50.836;4.430;2023-06-22T04:10:21;101189.16;;;24.59;59.68
27980;BME280;15315;50.836;4.430;2023-06-22T04:20:21;101206.28;;;24.92;58.98
27980;BME280;15315;50.836;4.430;2023-06-22T04:30:22;101218.09;;;25.15;58.48
27980;BME280;15315;50.836;4.430;2023-06-22T04:40:23;101214.19;;;25.10;59.35
27980;BME280;15315;50.836;4.430;2023-06-22T04:50:23;101202.19;;;25.17;60.59
27980;BME280;15315;50.836;4.430;2023-06-22T05:00:24;101195.59;;;25.18;63.32
27980;BME280;15315;50.836;4.430;2023-06-22T05:10:24;101199.72;;;24.41;66.73
27980;BME280;15315;50.836;4.430;2023-06-22T05:20:24;101203.31;;;24.79;70.73
27980;BME280;15315;50.836;4.430;2023-06-22T05:30:25;101204.34;;;24.41;80.33
27980;BME280;15315;50.836;4.430;2023-06-22T05:40:27;101214.47;;;22.87;100.00
27980;BME280;15315;50.836;4.430;2023-06-22T05:50:27;101204.56;;;22.29;100.00
27980;BME280;15315;50.836;4.430;2023-06-22T06:00:28;101194.56;;;22.76;100.00
27980;BME280;15315;50.836;4.430;2023-06-22T06:10:28;101184.94;;;23.27;100.00
27980;BME280;15315;50.836;4.430;2023-06-22T06:20:29;101146.25;;;23.29;100.00
27980;BME280;15315;50.836;4.430;2023-06-22T06:30:30;101129.78;;;24.20;100.00
27980;BME280;15315;50.836;4.430;2023-06-22T06:40:30;101111.25;;;23.91;100.00
27980;BME280;15315;50.836;4.430;2023-06-22T06:50:31;101109.88;;;24.47;98.97
27980;BME280;15315;50.836;4.430;2023-06-22T07:00:31;101098.53;;;23.90;100.00
27980;BME280;15315;50.836;4.430;2023-06-22T07:10:32;101087.56;;;24.56;96.65
27980;BME280;15315;50.836;4.430;2023-06-22T07:20:32;101065.41;;;24.64;93.85
27980;BME280;15315;50.836;4.430;2023-06-22T07:30:34;101053.25;;;24.74;90.24
27980;BME280;15315;50.836;4.430;2023-06-22T07:40:34;101070.03;;;24.35;91.66
27980;BME280;15315;50.836;4.430;2023-06-22T07:50:35;101055.94;;;25.03;84.96
27980;BME280;15315;50.836;4.430;2023-06-22T08:00:35;101036.56;;;24.52;86.79
27980;BME280;15315;50.836;4.430;2023-06-22T08:10:36;101042.56;;;25.36;83.63
27980;BME280;15315;50.836;4.430;2023-06-22T08:20:36;101048.78;;;25.08;83.18
27980;BME280;15315;50.836;4.430;2023-06-22T08:30:37;101041.00;;;24.61;85.40
27980;BME280;15315;50.836;4.430;2023-06-22T08:40:37;101037.00;;;23.97;88.25
27980;BME280;15315;50.836;4.430;2023-06-22T08:50:37;101035.16;;;24.42;86.90
27980;BME280;15315;50.836;4.430;2023-06-22T09:00:40;101054.94;;;24.75;82.86
27980;BME280;15315;50.836;4.430;2023-06-22T09:10:41;101066.78;;;25.04;80.04
27980;BME280;15315;50.836;4.430;2023-06-22T09:20:41;101074.69;;;24.93;82.69
27980;BME280;15315;50.836;4.430;2023-06-22T09:30:43;101111.97;;;25.03;83.00
27980;BME280;15315;50.836;4.430;2023-06-22T09:40:44;101156.69;;;24.69;93.73
27980;BME280;15315;50.836;4.430;2023-06-22T09:50:45;101788.84;;;20.36;100.00
27980;BME280;15315;50.836;4.430;2023-06-22T10:00:45;102376.22;;;19.91;100.00
27980;BME280;15315;50.836;4.430;2023-06-22T10:10:46;102369.63;;;21.89;100.00
27980;BME280;15315;50.836;4.430;2023-06-22T10:20:50;102206.13;;;22.04;100.00
27980;BME280;15315;50.836;4.430;2023-06-22T10:30:51;101621.16;;;21.51;100.00
27980;BME280;15315;50.836;4.430;2023-06-22T10:40:52;101425.47;;;21.51;100.00
27980;BME280;15315;50.836;4.430;2023-06-22T10:50:52;101377.31;;;20.52;100.00
27980;BME280;15315;50.836;4.430;2023-06-22T11:00:53;101374.84;;;19.50;100.00
27980;BME280;15315;50.836;4.430;2023-06-22T11:10:54;101387.19;;;19.91;100.00
27980;BME280;15315;50.836;4.430;2023-06-22T11:20:54;101380.19;;;21.04;100.00
27980;BME280;15315;50.836;4.430;2023-06-22T11:30:54;101328.41;;;21.00;100.00
27980;BME280;15315;50.836;4.430;2023-06-22T11:40:55;101325.53;;;20.67;100.00
27980;BME280;15315;50.836;4.430;2023-06-22T11:50:56;101350.94;;;21.38;100.00
27980;BME280;15315;50.836;4.430;2023-06-22T12:00:57;101336.75;;;20.73;100.00
27980;BME280;15315;50.836;4.430;2023-06-22T12:10:57;101328.28;;;20.84;100.00
27980;BME280;15315;50.836;4.430;2023-06-22T12:20:57;101300.94;;;19.23;100.00
27980;BME280;15315;50.836;4.430;2023-06-22T12:30:58;101362.72;;;20.52;100.00
27980;BME280;15315;50.836;4.430;2023-06-22T12:40:58;101317.34;;;20.49;100.00
27980;BME280;15315;50.836;4.430;2023-06-22T12:50:59;101292.78;;;20.39;100.00
27980;BME280;15315;50.836;4.430;2023-06-22T13:00:59;101289.91;;;21.10;100.00
27980;BME280;15315;50.836;4.430;2023-06-22T13:11:00;101333.59;;;20.15;100.00
27980;BME280;15315;50.836;4.430;2023-06-22T13:21:04;101561.22;;;19.26;100.00
27980;BME280;15315;50.836;4.430;2023-06-22T13:31:04;101631.34;;;19.37;100.00
27980;BME280;15315;50.836;4.430;2023-06-22T13:41:05;101378.84;;;19.55;100.00
27980;BME280;15315;50.836;4.430;2023-06-22T13:51:06;101517.75;;;18.05;100.00
27980;BME280;15315;50.836;4.430;2023-06-22T14:01:07;101493.56;;;18.21;100.00
27980;BME280;15315;50.836;4.430;2023-06-22T14:11:07;101505.31;;;18.62;100.00
27980;BME280;15315;50.836;4.430;2023-06-22T14:21:08;101593.06;;;18.68;100.00
27980;BME280;15315;50.836;4.430;2023-06-22T14:31:08;101445.09;;;18.53;100.00
27980;BME280;15315;50.836;4.430;2023-06-22T14:41:08;101361.22;;;19.67;100.00
27980;BME280;15315;50.836;4.430;2023-06-22T14:51:10;101833.81;;;17.13;100.00
27980;BME280;15315;50.836;4.430;2023-06-22T15:01:11;101921.38;;;18.19;100.00
27980;BME280;15315;50.836;4.430;2023-06-22T15:11:11;101549.75;;;19.61;100.00
27980;BME280;15315;50.836;4.430;2023-06-22T15:21:12;101417.09;;;20.02;100.00
27980;BME280;15315;50.836;4.430;2023-06-22T15:31:12;101435.00;;;19.31;100.00
27980;BME280;15315;50.836;4.430;2023-06-22T15:41:13;101440.84;;;20.11;100.00
27980;BME280;15315;50.836;4.430;2023-06-22T15:51:13;101401.66;;;20.10;100.00
27980;BME280;15315;50.836;4.430;2023-06-22T16:01:14;101546.78;;;19.91;100.00
27980;BME280;15315;50.836;4.430;2023-06-22T16:11:14;101423.19;;;20.50;100.00
27980;BME280;15315;50.836;4.430;2023-06-22T16:21:14;101378.94;;;20.63;100.00
27980;BME280;15315;50.836;4.430;2023-06-22T16:31:15;101394.81;;;21.12;100.00
27980;BME280;15315;50.836;4.430;2023-06-22T16:41:16;101388.94;;;20.72;100.00
27980;BME280;15315;50.836;4.430;2023-06-22T16:51:17;101428.44;;;20.96;100.00
27980;BME280;15315;50.836;4.430;2023-06-22T17:01:18;101443.81;;;20.45;100.00
27980;BME280;15315;50.836;4.430;2023-06-22T17:11:19;101451.38;;;20.33;100.00
27980;BME280;15315;50.836;4.430;2023-06-22T17:21:23;101462.91;;;20.99;100.00
27980;BME280;15315;50.836;4.430;2023-06-22T17:31:24;101456.09;;;20.40;100.00
27980;BME280;15315;50.836;4.430;2023-06-22T17:41:32;101472.78;;;20.92;100.00
27980;BME280;15315;50.836;4.430;2023-06-22T17:51:32;101457.47;;;20.72;100.00
27980;BME280;15315;50.836;4.430;2023-06-22T18:01:35;101488.06;;;20.50;100.00
27980;BME280;15315;50.836;4.430;2023-06-22T18:11:45;101499.66;;;20.61;100.00
27980;BME280;15315;50.836;4.430;2023-06-22T18:21:49;101488.03;;;20.94;100.00
27980;BME280;15315;50.836;4.430;2023-06-22T18:31:49;101486.72;;;20.98;100.00
27980;BME280;15315;50.836;4.430;2023-06-22T18:41:54;101491.25;;;20.90;100.00
27980;BME280;15315;50.836;4.430;2023-06-22T19:02:10;101510.63;;;20.88;100.00
27980;BME280;15315;50.836;4.430;2023-06-22T19:12:22;101534.56;;;20.86;100.00
27980;BME280;15315;50.836;4.430;2023-06-22T19:22:37;101497.94;;;20.60;100.00
27980;BME280;15315;50.836;4.430;2023-06-22T19:32:44;101510.59;;;20.61;100.00
27980;BME280;15315;50.836;4.430;2023-06-22T19:42:46;101533.22;;;20.63;100.00
27980;BME280;15315;50.836;4.430;2023-06-22T19:52:46;101574.91;;;20.94;100.00
27980;BME280;15315;50.836;4.430;2023-06-22T20:02:50;101562.84;;;20.60;100.00
27980;BME280;15315;50.836;4.430;2023-06-22T20:12:52;101593.03;;;20.77;100.00
27980;BME280;15315;50.836;4.430;2023-06-22T20:22:56;101577.03;;;20.09;100.00
27980;BME280;15315;50.836;4.430;2023-06-22T20:32:57;101597.00;;;20.28;100.00
27980;BME280;15315;50.836;4.430;2023-06-22T20:42:59;101563.06;;;20.12;100.00
27980;BME280;15315;50.836;4.430;2023-06-22T20:53:00;101590.47;;;19.54;100.00
27980;BME280;15315;50.836;4.430;2023-06-22T21:03:06;101578.47;;;19.94;100.00
27980;BME280;15315;50.836;4.430;2023-06-22T21:13:08;101560.66;;;19.70;100.00
27980;BME280;15315;50.836;4.430;2023-06-22T21:23:09;101567.84;;;19.71;100.00
27980;BME280;15315;50.836;4.430;2023-06-22T21:33:09;101563.03;;;20.02;100.00
27980;BME280;15315;50.836;4.430;2023-06-22T21:43:10;101560.94;;;19.77;100.00
27980;BME280;15315;50.836;4.430;2023-06-22T21:53:12;101563.44;;;20.54;100.00
27980;BME280;15315;50.836;4.430;2023-06-22T22:03:12;101545.63;;;19.94;100.00
27980;BME280;15315;50.836;4.430;2023-06-22T22:13:13;101572.50;;;20.27;100.00
27980;BME280;15315;50.836;4.430;2023-06-22T22:23:13;101580.47;;;20.01;100.00
27980;BME280;15315;50.836;4.430;2023-06-22T22:33:14;101604.63;;;20.98;100.00
27980;BME280;15315;50.836;4.430;2023-06-22T22:43:14;101621.66;;;20.65;100.00
27980;BME280;15315;50.836;4.430;2023-06-22T22:53:14;101617.47;;;20.61;100.00
27980;BME280;15315;50.836;4.430;2023-06-22T23:03:17;101611.28;;;20.22;100.00
27980;BME280;15315;50.836;4.430;2023-06-22T23:13:17;101624.13;;;20.03;100.00
27980;BME280;15315;50.836;4.430;2023-06-22T23:23:18;101623.84;;;19.29;100.00
27980;BME280;15315;50.836;4.430;2023-06-22T23:33:18;101624.16;;;19.84;100.00
27980;BME280;15315;50.836;4.430;2023-06-22T23:43:19;101610.28;;;19.95;100.00
27980;BME280;15315;50.836;4.430;2023-06-22T23:53:20;101635.22;;;19.34;100.00
